createdAt,value
2022-08-08T00:00:52.669Z,55.70
2022-08-08T00:03:13.260Z,56.00
2022-08-08T00:06:03.763Z,55.90
2022-08-08T00:08:49.124Z,56.10
2022-08-08T00:11:46.867Z,56.40
2022-08-08T00:14:59.202Z,56.70
2022-08-08T00:17:47.974Z,56.90
2022-08-08T00:20:45.540Z,56.70
2022-08-08T00:23:42.315Z,57.00
2022-08-08T00:26:21.649Z,57.20
2022-08-08T00:29:00.896Z,57.20
2022-08-08T00:32:16.286Z,57.50
2022-08-08T00:35:20.530Z,57.50
2022-08-08T00:38:03.443Z,57.80
2022-08-08T00:41:09.041Z,57.90
2022-08-08T00:43:56.332Z,57.90
2022-08-08T00:47:14.262Z,58.20
2022-08-08T00:50:13.154Z,58.40
2022-08-08T00:53:03.545Z,58.50
2022-08-08T00:56:13.690Z,58.50
2022-08-08T00:58:58.318Z,58.80
2022-08-08T01:02:01.750Z,58.60
2022-08-08T01:05:42.021Z,59.20
2022-08-08T01:08:31.397Z,59.30
2022-08-08T01:11:07.974Z,59.40
2022-08-08T01:13:59.835Z,59.20
2022-08-08T01:16:48.029Z,59.80
2022-08-08T01:19:52.344Z,59.70
2022-08-08T01:22:47.062Z,60.30
2022-08-08T01:25:40.209Z,60.60
2022-08-08T01:28:27.982Z,60.80
2022-08-08T01:32:06.583Z,60.70
2022-08-08T01:34:28.998Z,61.10
2022-08-08T01:37:56.291Z,61.10
2022-08-08T01:40:39.308Z,61.80
2022-08-08T01:43:38.639Z,61.90
2022-08-08T01:46:23.725Z,62.30
2022-08-08T01:49:37.075Z,62.00
2022-08-08T01:55:15.178Z,62.70
2022-08-08T01:56:28.731Z,62.80
2022-08-08T01:59:20.538Z,62.70
2022-08-08T02:02:04.229Z,63.00
2022-08-08T02:05:01.388Z,63.00
2022-08-08T02:07:41.698Z,63.00
2022-08-08T02:10:37.307Z,63.40
2022-08-08T02:13:54.379Z,63.70
2022-08-08T02:16:55.629Z,63.60
2022-08-08T02:20:07.326Z,63.80
2022-08-08T02:22:45.876Z,63.90
2022-08-08T02:25:47.451Z,63.90
2022-08-08T02:28:59.246Z,64.30
2022-08-08T02:31:58.202Z,64.60
2022-08-08T02:34:33.167Z,64.40
2022-08-08T02:37:53.049Z,64.90
2022-08-08T02:40:30.993Z,65.10
2022-08-08T02:44:38.393Z,65.80
2022-08-08T02:46:25.191Z,66.00
2022-08-08T02:49:08.042Z,65.70
2022-08-08T02:51:59.794Z,66.10
2022-08-08T02:55:05.436Z,66.60
2022-08-08T02:58:17.671Z,67.20
2022-08-08T03:01:14.749Z,67.20
2022-08-08T03:05:04.944Z,67.70
2022-08-08T03:07:22.883Z,67.90
2022-08-08T03:10:33.733Z,68.10
2022-08-08T03:15:53.463Z,68.30
2022-08-08T03:16:35.944Z,68.20
2022-08-08T03:19:27.264Z,68.90
2022-08-08T03:21:59.604Z,69.20
2022-08-08T03:24:30.384Z,68.90
2022-08-08T03:27:26.925Z,69.30
2022-08-08T03:30:03.571Z,69.80
2022-08-08T03:32:58.875Z,69.80
2022-08-08T03:35:38.973Z,70.00
2022-08-08T03:38:57.067Z,70.30
2022-08-08T03:40:57.238Z,70.40
2022-08-08T03:43:31.624Z,70.70
2022-08-08T03:46:09.208Z,71.00
2022-08-08T03:49:30.853Z,71.30
2022-08-08T03:51:50.729Z,71.50
2022-08-08T03:54:51.526Z,71.50
2022-08-08T03:58:30.193Z,71.70
2022-08-08T04:00:18.321Z,72.10
2022-08-08T04:03:04.102Z,72.30
2022-08-08T04:05:35.557Z,73.20
2022-08-08T04:08:33.108Z,72.50
2022-08-08T04:11:10.871Z,72.90
2022-08-08T04:14:03.206Z,72.70
2022-08-08T04:16:38.849Z,72.80
2022-08-08T04:19:24.184Z,72.80
2022-08-08T04:21:58.379Z,73.00
2022-08-08T04:24:30.941Z,73.20
2022-08-08T04:27:03.577Z,73.30
2022-08-08T04:29:38.895Z,73.40
2022-08-08T04:32:40.916Z,73.50
2022-08-08T04:35:05.101Z,73.80
2022-08-08T04:37:37.268Z,74.00
2022-08-08T04:40:13.056Z,74.00
2022-08-08T04:42:57.406Z,74.30
2022-08-08T04:45:42.422Z,74.20
2022-08-08T04:48:10.981Z,74.40
2022-08-08T04:50:46.050Z,74.60
2022-08-08T04:54:26.917Z,74.70
2022-08-08T04:56:08.919Z,74.90
2022-08-08T04:58:38.199Z,74.90
2022-08-08T05:01:09.551Z,75.20
2022-08-08T05:04:09.190Z,75.20
2022-08-08T05:06:36.502Z,75.30
2022-08-08T05:09:07.871Z,75.50
2022-08-08T05:11:40.729Z,75.60
2022-08-08T05:14:12.756Z,75.70
2022-08-08T05:16:53.005Z,75.80
2022-08-08T05:20:11.423Z,75.90
2022-08-08T05:22:23.765Z,76.10
2022-08-08T05:24:52.245Z,76.20
2022-08-08T05:27:22.652Z,76.40
2022-08-08T05:29:53.204Z,76.50
2022-08-08T05:32:27.317Z,76.80
2022-08-08T05:35:04.811Z,76.80
2022-08-08T05:37:53.779Z,77.00
2022-08-08T05:40:55.779Z,77.10
2022-08-08T05:44:02.233Z,77.10
2022-08-08T05:46:17.429Z,77.30
2022-08-08T05:48:49.935Z,77.30
2022-08-08T05:51:22.806Z,77.40
2022-08-08T05:54:27.593Z,77.50
2022-08-08T05:56:47.569Z,78.50
2022-08-08T05:59:59.887Z,77.70
2022-08-08T06:02:47.988Z,78.50
2022-08-08T06:05:33.674Z,77.80
2022-08-08T06:08:09.676Z,77.90
2022-08-08T06:10:49.371Z,77.80
2022-08-08T06:13:22.561Z,77.90
2022-08-08T06:15:55.324Z,78.00
2022-08-08T06:18:47.427Z,78.00
2022-08-08T06:21:32.824Z,77.90
2022-08-08T06:24:13.764Z,78.20
2022-08-08T06:26:59.037Z,78.10
2022-08-08T06:30:00.263Z,78.50
2022-08-08T06:32:32.511Z,78.80
2022-08-08T06:36:04.944Z,78.80
2022-08-08T06:38:02.073Z,78.90
2022-08-08T06:40:36.968Z,78.90
2022-08-08T06:43:10.631Z,79.20
2022-08-08T06:45:48.419Z,79.40
2022-08-08T06:48:18.687Z,79.40
2022-08-08T06:50:52.092Z,79.40
2022-08-08T06:53:22.771Z,79.50
2022-08-08T06:56:02.550Z,79.40
2022-08-08T06:58:35.446Z,79.50
2022-08-08T07:02:17.418Z,79.50
2022-08-08T07:04:36.407Z,79.60
2022-08-08T07:07:11.412Z,79.90
2022-08-08T07:09:59.793Z,79.80
2022-08-08T07:12:54.989Z,79.80
2022-08-08T07:16:05.239Z,79.60
2022-08-08T07:18:57.795Z,79.60
2022-08-08T07:21:35.726Z,79.50
2022-08-08T07:24:22.982Z,79.40
2022-08-08T07:26:59.368Z,79.50
2022-08-08T07:30:01.770Z,79.40
2022-08-08T07:32:25.687Z,79.10
2022-08-08T07:35:00.762Z,78.90
2022-08-08T07:37:56.208Z,78.80
2022-08-08T07:40:45.450Z,78.70
2022-08-08T07:43:15.772Z,78.70
2022-08-08T07:46:18.323Z,78.40
2022-08-08T07:48:42.099Z,79.00
2022-08-08T07:51:23.817Z,78.10
2022-08-08T07:54:15.847Z,77.90
2022-08-08T07:57:12.665Z,78.40
2022-08-08T07:59:54.508Z,77.40
2022-08-08T08:02:35.869Z,77.30
2022-08-08T08:05:16.386Z,76.90
2022-08-08T08:07:52.893Z,76.60
2022-08-08T08:10:30.565Z,76.40
2022-08-08T08:14:05.955Z,76.10
2022-08-08T08:16:32.115Z,75.90
2022-08-08T08:19:10.730Z,75.60
2022-08-08T08:21:57.865Z,75.20
2022-08-08T08:24:39.548Z,74.80
2022-08-08T08:27:12.434Z,74.60
2022-08-08T08:29:43.637Z,74.20
2022-08-08T08:32:31.980Z,74.00
2022-08-08T08:35:07.597Z,73.60
2022-08-08T08:37:59.213Z,73.40
2022-08-08T08:40:25.661Z,72.80
2022-08-08T08:42:55.880Z,72.50
2022-08-08T08:45:26.516Z,72.30
2022-08-08T08:48:00.818Z,71.90
2022-08-08T08:50:35.499Z,71.60
2022-08-08T08:53:54.503Z,71.20
2022-08-08T08:56:08.454Z,70.70
2022-08-08T08:58:42.867Z,70.20
2022-08-08T09:01:17.154Z,69.30
2022-08-08T09:03:50.676Z,68.80
2022-08-08T09:06:26.365Z,68.50
2022-08-08T09:09:26.309Z,68.10
2022-08-08T09:12:07.537Z,67.80
2022-08-08T09:14:42.467Z,67.60
2022-08-08T09:17:28.571Z,66.90
2022-08-08T09:21:57.484Z,66.60
2022-08-08T09:22:48.449Z,66.40
2022-08-08T09:25:19.746Z,65.80
2022-08-08T09:27:57.183Z,65.10
2022-08-08T09:30:32.157Z,64.00
2022-08-08T09:33:12.553Z,63.00
2022-08-08T09:35:53.059Z,62.80
2022-08-08T09:38:31.852Z,62.60
2022-08-08T09:41:06.254Z,61.50
2022-08-08T09:44:05.480Z,60.70
2022-08-08T09:46:35.266Z,60.10
2022-08-08T09:49:41.695Z,59.90
2022-08-08T09:52:07.019Z,58.90
2022-08-08T09:54:44.615Z,58.40
2022-08-08T09:57:19.115Z,58.10
2022-08-08T10:00:27.619Z,57.50
2022-08-08T10:02:47.093Z,56.80
2022-08-08T10:05:22.778Z,56.30
2022-08-08T10:07:59.771Z,56.00
2022-08-08T10:10:33.031Z,55.70
2022-08-08T10:13:06.209Z,55.20
2022-08-08T10:16:00.885Z,54.50
2022-08-08T10:18:33.721Z,54.00
2022-08-08T10:21:26.184Z,53.70
2022-08-08T10:24:03.180Z,52.90
2022-08-08T10:26:57.310Z,52.00
2022-08-08T10:29:58.495Z,51.50
2022-08-08T10:32:34.420Z,50.90
2022-08-08T10:35:11.880Z,50.70
2022-08-08T10:38:02.962Z,50.60
2022-08-08T10:40:33.415Z,49.90
2022-08-08T10:43:04.108Z,49.20
2022-08-08T10:45:55.558Z,48.20
2022-08-08T10:48:38.835Z,47.30
2022-08-08T10:51:47.589Z,46.90
2022-08-08T10:54:25.137Z,46.00
2022-08-08T10:57:00.708Z,45.80
2022-08-08T10:59:40.077Z,45.10
2022-08-08T11:02:10.561Z,44.30
2022-08-08T11:04:53.660Z,43.90
2022-08-08T11:08:37.971Z,43.10
2022-08-08T11:10:29.814Z,41.80
2022-08-08T11:13:29.137Z,41.90
2022-08-08T11:16:00.249Z,41.90
2022-08-08T11:18:32.350Z,41.80
2022-08-08T11:21:09.875Z,41.10
2022-08-08T11:23:42.417Z,40.70
2022-08-08T11:26:19.138Z,40.40
2022-08-08T11:28:47.858Z,40.00
2022-08-08T11:31:21.860Z,39.80
2022-08-08T11:34:03.101Z,39.30
2022-08-08T11:36:40.461Z,39.00
2022-08-08T11:39:12.980Z,38.70
2022-08-08T11:41:43.236Z,38.40
2022-08-08T11:44:13.511Z,37.80
2022-08-08T11:46:42.341Z,37.60
2022-08-08T11:49:14.697Z,37.30
2022-08-08T11:51:50.518Z,36.50
2022-08-08T11:54:33.562Z,36.40
2022-08-08T11:57:14.205Z,35.90
2022-08-08T12:00:01.536Z,36.20
2022-08-08T12:02:55.231Z,36.10
2022-08-08T12:05:37.751Z,36.30
2022-08-08T12:08:06.283Z,35.90
2022-08-08T12:10:47.541Z,35.70
2022-08-08T12:13:38.379Z,35.50
2022-08-08T12:16:14.028Z,35.10
2022-08-08T12:18:55.123Z,34.90
2022-08-08T12:21:58.787Z,34.80
2022-08-08T12:24:28.334Z,34.60
2022-08-08T12:26:58.574Z,34.30
2022-08-08T12:29:40.712Z,34.30
2022-08-08T12:32:19.938Z,33.90
2022-08-08T12:35:04.764Z,33.40
2022-08-08T12:37:47.882Z,33.30
2022-08-08T12:40:38.400Z,32.90
2022-08-08T12:43:32.007Z,32.00
2022-08-08T12:46:03.040Z,32.00
2022-08-08T12:48:37.980Z,32.10
2022-08-08T12:51:18.663Z,32.10
2022-08-08T12:54:00.534Z,32.30
2022-08-08T12:56:40.101Z,32.10
2022-08-08T12:59:20.502Z,32.10
2022-08-08T13:02:00.485Z,32.00
2022-08-08T13:04:34.558Z,31.60
2022-08-08T13:07:07.901Z,31.40
2022-08-08T13:10:04.794Z,31.40
2022-08-08T13:12:44.453Z,31.00
2022-08-08T13:15:19.754Z,30.80
2022-08-08T13:18:08.523Z,30.90
2022-08-08T13:20:44.780Z,30.90
2022-08-08T13:23:41.744Z,30.60
2022-08-08T13:26:14.846Z,30.40
2022-08-08T13:28:45.913Z,30.90
2022-08-08T13:31:17.438Z,31.00
2022-08-08T13:33:50.815Z,30.70
2022-08-08T13:36:25.788Z,30.40
2022-08-08T13:38:59.500Z,30.10
2022-08-08T13:41:39.258Z,30.00
2022-08-08T13:44:12.960Z,29.90
2022-08-08T13:46:57.946Z,30.00
2022-08-08T13:50:38.866Z,30.00
2022-08-08T13:52:23.122Z,30.50
2022-08-08T13:55:06.619Z,30.50
2022-08-08T13:58:06.299Z,30.50
2022-08-08T14:00:24.578Z,30.40
2022-08-08T14:02:59.400Z,30.20
2022-08-08T14:05:34.112Z,30.10
2022-08-08T14:08:16.341Z,30.30
2022-08-08T14:10:45.468Z,30.80
2022-08-08T14:13:31.001Z,30.80
2022-08-08T14:16:15.816Z,30.60
2022-08-08T14:18:54.775Z,30.50
2022-08-08T14:21:39.881Z,31.00
2022-08-08T14:24:10.398Z,30.80
2022-08-08T14:26:45.852Z,30.70
2022-08-08T14:29:28.267Z,30.70
2022-08-08T14:32:08.776Z,30.30
2022-08-08T14:34:38.958Z,30.20
2022-08-08T14:37:08.124Z,30.10
2022-08-08T14:40:06.505Z,30.00
2022-08-08T14:42:55.359Z,29.50
2022-08-08T14:45:33.564Z,29.50
2022-08-08T14:48:27.301Z,30.00
2022-08-08T14:51:07.086Z,29.80
2022-08-08T14:53:37.383Z,29.50
2022-08-08T14:56:25.238Z,29.20
2022-08-08T14:58:54.679Z,29.00
2022-08-08T15:01:41.138Z,28.80
2022-08-08T15:04:11.130Z,28.70
2022-08-08T15:06:39.092Z,29.10
2022-08-08T15:09:07.172Z,29.20
2022-08-08T15:11:43.294Z,29.20
2022-08-08T15:14:15.252Z,29.30
2022-08-08T15:16:44.407Z,29.50
2022-08-08T15:19:15.054Z,29.60
2022-08-08T15:21:44.688Z,29.80
2022-08-08T15:24:14.031Z,30.00
2022-08-08T15:26:46.716Z,30.00
2022-08-08T15:29:22.653Z,29.90
2022-08-08T15:32:03.468Z,30.00
2022-08-08T15:34:40.896Z,30.00
2022-08-08T15:37:09.293Z,30.00
2022-08-08T15:39:39.728Z,30.20
2022-08-08T15:42:10.187Z,30.30
2022-08-08T15:44:38.710Z,30.30
2022-08-08T15:47:15.636Z,30.30
2022-08-08T15:49:48.360Z,30.40
2022-08-08T15:52:17.999Z,30.60
2022-08-08T15:54:52.207Z,30.60
2022-08-08T15:57:21.984Z,30.70
2022-08-08T16:00:17.929Z,30.60
2022-08-08T16:02:50.255Z,30.80
2022-08-08T16:05:20.574Z,30.70
2022-08-08T16:07:52.877Z,30.90
2022-08-08T16:13:10.006Z,31.00
2022-08-08T16:13:30.839Z,31.30
2022-08-08T16:16:09.218Z,31.40
2022-08-08T16:18:44.579Z,31.60
2022-08-08T16:21:31.504Z,31.90
2022-08-08T16:24:02.144Z,31.90
2022-08-08T16:26:33.900Z,32.10
2022-08-08T16:29:07.102Z,32.40
2022-08-08T16:31:40.231Z,32.60
2022-08-08T16:34:09.810Z,32.60
2022-08-08T16:36:38.984Z,33.00
2022-08-08T16:39:28.446Z,33.20
2022-08-08T16:42:01.501Z,34.10
2022-08-08T16:44:33.729Z,33.80
2022-08-08T16:47:40.590Z,33.80
2022-08-08T16:50:13.642Z,34.20
2022-08-08T16:55:04.082Z,34.30
2022-08-08T16:55:52.692Z,34.60
2022-08-08T16:58:21.104Z,34.70
2022-08-08T17:00:55.209Z,34.90
2022-08-08T17:03:25.163Z,35.20
2022-08-08T17:06:35.597Z,35.40
2022-08-08T17:08:58.543Z,35.70
2022-08-08T17:11:28.235Z,35.90
2022-08-08T17:14:18.010Z,36.20
2022-08-08T17:16:57.490Z,36.50
2022-08-08T17:19:29.114Z,36.70
2022-08-08T17:22:01.036Z,37.00
2022-08-08T17:24:30.651Z,37.30
2022-08-08T17:27:00.337Z,37.60
2022-08-08T17:29:33.821Z,38.00
2022-08-08T17:32:05.939Z,38.20
2022-08-08T17:35:14.314Z,38.50
2022-08-08T17:37:27.610Z,38.70
2022-08-08T17:40:12.448Z,39.00
2022-08-08T17:42:47.193Z,39.50
2022-08-08T17:45:23.624Z,40.50
2022-08-08T17:47:53.841Z,40.20
2022-08-08T17:50:23.657Z,40.50
2022-08-08T17:52:53.154Z,40.80
2022-08-08T17:56:06.352Z,41.20
2022-08-08T17:58:11.742Z,41.60
2022-08-08T18:00:41.576Z,42.10
2022-08-08T18:03:13.720Z,42.50
2022-08-08T18:05:48.946Z,42.90
2022-08-08T18:08:37.864Z,43.30
2022-08-08T18:11:14.990Z,43.70
2022-08-08T18:13:46.317Z,44.10
2022-08-08T18:16:17.296Z,44.60
2022-08-08T18:18:57.390Z,45.00
2022-08-08T18:21:58.856Z,45.30
2022-08-08T18:24:21.535Z,45.60
2022-08-08T18:26:54.924Z,45.90
2022-08-08T18:29:29.413Z,46.30
2022-08-08T18:31:58.982Z,46.80
2022-08-08T18:34:27.335Z,47.10
2022-08-08T18:36:55.724Z,47.40
2022-08-08T18:39:27.450Z,47.80
2022-08-08T18:42:01.151Z,48.00
2022-08-08T18:44:36.092Z,48.20
2022-08-08T18:47:04.554Z,48.50
2022-08-08T18:49:40.938Z,48.90
2022-08-08T18:52:23.347Z,49.10
2022-08-08T18:55:00.652Z,49.50
2022-08-08T18:57:44.986Z,49.80
2022-08-08T19:00:16.880Z,50.20
2022-08-08T19:02:57.355Z,50.70
2022-08-08T19:05:37.356Z,51.10
2022-08-08T19:08:25.016Z,51.30
2022-08-08T19:11:01.878Z,51.80
2022-08-08T19:13:38.477Z,52.00
2022-08-08T19:16:23.447Z,52.20
2022-08-08T19:19:02.295Z,52.30
2022-08-08T19:21:33.253Z,51.80
2022-08-08T19:24:05.684Z,52.40
2022-08-08T19:26:35.642Z,52.10
2022-08-08T19:29:06.934Z,52.70
2022-08-08T19:31:36.023Z,53.40
2022-08-08T19:34:36.694Z,53.80
2022-08-08T19:36:58.591Z,54.80
2022-08-08T19:39:34.973Z,54.70
2022-08-08T19:42:04.801Z,55.10
2022-08-08T19:44:45.316Z,55.50
2022-08-08T19:47:14.945Z,56.00
2022-08-08T19:50:00.274Z,56.30
2022-08-08T19:52:35.190Z,57.30
2022-08-08T19:55:12.886Z,57.10
2022-08-08T19:57:44.929Z,57.50
2022-08-08T20:00:30.454Z,58.00
2022-08-08T20:03:15.049Z,58.50
2022-08-08T20:06:15.482Z,58.90
2022-08-08T20:08:47.688Z,59.10
2022-08-08T20:11:16.412Z,59.50
2022-08-08T20:14:34.754Z,60.00
2022-08-08T20:16:34.252Z,60.60
2022-08-08T20:19:06.424Z,61.10
2022-08-08T20:21:37.863Z,61.80
2022-08-08T20:24:07.771Z,62.40
2022-08-08T20:26:38.494Z,63.10
2022-08-08T20:29:11.125Z,63.60
2022-08-08T20:32:02.755Z,63.90
2022-08-08T20:34:31.623Z,64.50
2022-08-08T20:37:06.256Z,64.90
2022-08-08T20:39:41.388Z,65.50
2022-08-08T20:42:28.542Z,65.70
2022-08-08T20:44:58.837Z,66.20
2022-08-08T20:47:26.752Z,66.50
2022-08-08T20:49:58.079Z,67.00
2022-08-08T20:52:28.014Z,67.20
2022-08-08T20:54:57.175Z,67.70
2022-08-08T20:57:27.815Z,68.00
2022-08-08T20:59:56.137Z,68.40
2022-08-08T21:02:25.738Z,67.40
2022-08-08T21:05:01.212Z,68.10
2022-08-08T21:07:47.279Z,69.10
2022-08-08T21:10:20.829Z,69.00
2022-08-08T21:12:54.448Z,69.40
2022-08-08T21:16:06.087Z,69.60
2022-08-08T21:18:12.066Z,70.10
2022-08-08T21:20:42.008Z,70.10
2022-08-08T21:23:13.108Z,70.60
2022-08-08T21:25:49.054Z,71.00
2022-08-08T21:28:33.477Z,71.00
2022-08-08T21:31:22.020Z,71.20
2022-08-08T21:33:53.807Z,71.50
2022-08-08T21:36:29.518Z,71.70
2022-08-08T21:38:58.389Z,71.90
2022-08-08T21:41:38.300Z,72.00
2022-08-08T21:44:11.715Z,72.20
2022-08-08T21:48:20.426Z,72.30
2022-08-08T21:49:31.763Z,72.50
2022-08-08T21:54:18.407Z,72.70
2022-08-08T21:54:54.115Z,73.00
2022-08-08T21:57:42.115Z,73.10
2022-08-08T22:00:14.498Z,73.30
2022-08-08T22:02:44.846Z,72.40
2022-08-08T22:05:14.884Z,73.30
2022-08-08T22:07:47.473Z,73.60
2022-08-08T22:10:18.149Z,73.90
2022-08-08T22:13:17.628Z,74.10
2022-08-08T22:15:59.594Z,74.20
2022-08-08T22:18:34.015Z,74.50
2022-08-08T22:21:14.685Z,74.70
2022-08-08T22:23:52.097Z,74.70
2022-08-08T22:26:29.039Z,74.80
2022-08-08T22:29:12.818Z,74.90
2022-08-08T22:31:58.510Z,75.30
2022-08-08T22:34:39.858Z,75.20
2022-08-08T22:37:14.995Z,75.30
2022-08-08T22:40:01.150Z,75.50
2022-08-08T22:42:34.841Z,75.60
2022-08-08T22:45:13.030Z,75.70
2022-08-08T22:47:46.863Z,76.10
2022-08-08T22:50:25.751Z,76.00
2022-08-08T22:54:30.866Z,76.10
2022-08-08T22:56:02.981Z,76.30
2022-08-08T22:58:34.253Z,76.40
2022-08-08T23:01:16.516Z,76.90
2022-08-08T23:03:54.798Z,77.20
2022-08-08T23:06:26.911Z,77.30
2022-08-08T23:08:58.524Z,77.70
2022-08-08T23:11:30.824Z,77.90
2022-08-08T23:14:18.839Z,78.10
2022-08-08T23:16:58.000Z,78.20
2022-08-08T23:19:30.853Z,78.40
2022-08-08T23:22:06.495Z,78.50
2022-08-08T23:24:41.373Z,78.60
2022-08-08T23:27:10.841Z,78.70
2022-08-08T23:29:55.174Z,78.90
2022-08-08T23:32:24.272Z,78.90
2022-08-08T23:34:59.265Z,79.00
2022-08-08T23:38:02.042Z,79.10
2022-08-08T23:40:22.049Z,79.40
2022-08-08T23:42:51.517Z,79.50
2022-08-08T23:49:02.737Z,79.80
2022-08-08T23:49:04.324Z,79.40
2022-08-08T23:50:57.197Z,79.80
2022-08-08T23:54:05.382Z,79.70
2022-08-08T23:56:13.205Z,79.30
2022-08-08T23:58:51.506Z,79.20
